Time;durP1;ratioP1;P1;durP2;ratioP2;P2;SDS_P1;SDS_P2;PMS_P1;PMS_P2;Temp;Humidity;BMP_temperature;BMP_pressure;BME280_temperature;BME280_humidity;BME280_pressure;Samples;Min_cycle;Max_cycle;Signal;HPM_P1;HPM_P2
2023/01/03 00:01:25;;;;;;;7.00;0.88;;;3.40;95.60;;;;;;5111998;27;20406;-91
2023/01/03 00:03:55;;;;;;;6.95;1.00;;;3.50;95.80;;;;;;5111154;27;20944;-91
2023/01/03 00:06:26;;;;;;;6.60;0.90;;;3.50;95.40;;;;;;5128783;27;20399;-90
2023/01/03 00:08:54;;;;;;;10.03;1.20;;;3.60;95.10;;;;;;5111362;27;20799;-90
2023/01/03 00:12:22;;;;;;;7.05;1.35;;;3.60;95.40;;;;;;5110672;27;20459;-91
2023/01/03 00:14:09;;;;;;;6.35;1.20;;;3.70;95.50;;;;;;5129171;27;20398;-90
2023/01/03 00:16:36;;;;;;;6.18;1.20;;;3.70;95.30;;;;;;5110670;27;20426;-91
2023/01/03 00:19:21;;;;;;;9.50;1.73;;;3.70;95.10;;;;;;5111732;27;20409;-90
2023/01/03 00:21:46;;;;;;;9.03;1.40;;;3.80;95.40;;;;;;5110853;27;20485;-90
2023/01/03 00:24:12;;;;;;;10.60;1.90;;;3.80;95.40;;;;;;5111046;27;20952;-90
2023/01/03 00:26:39;;;;;;;9.33;1.73;;;3.80;95.70;;;;;;5111383;27;20511;-89
2023/01/03 00:29:05;;;;;;;9.00;1.70;;;3.90;95.60;;;;;;5110275;27;20518;-89
2023/01/03 00:31:31;;;;;;;9.27;1.40;;;3.90;95.70;;;;;;5111487;27;20406;-89
2023/01/03 00:33:57;;;;;;;6.37;1.80;;;3.90;95.20;;;;;;5110537;27;20731;-89
2023/01/03 00:36:22;;;;;;;8.95;1.60;;;3.90;95.30;;;;;;5111476;27;20411;-90
2023/01/03 00:38:48;;;;;;;7.28;1.35;;;4.00;95.30;;;;;;5110858;27;20394;-89
2023/01/03 00:41:16;;;;;;;5.47;1.10;;;4.00;94.90;;;;;;5110915;27;20409;-89
2023/01/03 00:43:45;;;;;;;8.02;1.17;;;4.00;94.70;;;;;;5113208;27;20395;-88
2023/01/03 00:46:12;;;;;;;5.45;0.93;;;4.00;94.50;;;;;;5113689;27;20424;-91
2023/01/03 00:48:39;;;;;;;8.37;1.00;;;4.10;94.30;;;;;;5115018;27;20797;-90
2023/01/03 00:51:06;;;;;;;5.50;1.13;;;4.10;94.40;;;;;;5113771;27;20401;-88
2023/01/03 00:53:31;;;;;;;7.68;0.95;;;4.10;94.20;;;;;;5114837;27;20464;-91
2023/01/03 00:56:05;;;;;;;6.80;1.40;;;4.20;94.40;;;;;;5113756;27;20946;-90
2023/01/03 00:58:32;;;;;;;7.00;1.30;;;4.20;94.30;;;;;;5113756;27;20484;-89
2023/01/03 01:01:14;;;;;;;7.40;1.70;;;4.30;94.20;;;;;;5113466;27;20441;-90
2023/01/03 01:03:43;;;;;;;6.82;1.40;;;4.30;94.20;;;;;;5113242;27;20404;-90
2023/01/03 01:06:24;;;;;;;8.77;1.55;;;4.30;94.10;;;;;;5131134;27;20493;-91
2023/01/03 01:08:52;;;;;;;7.47;1.58;;;4.50;94.00;;;;;;5104853;27;20456;-90
2023/01/03 01:11:18;;;;;;;6.18;1.52;;;4.30;94.10;;;;;;5093373;27;20397;-91
2023/01/03 01:13:45;;;;;;;9.90;1.60;;;4.40;94.10;;;;;;5110690;27;20867;-90
2023/01/03 01:16:16;;;;;;;5.55;1.10;;;4.40;93.90;;;;;;5093092;27;20402;-91
2023/01/03 01:18:43;;;;;;;6.93;1.60;;;4.40;93.90;;;;;;5093563;27;20406;-91
2023/01/03 01:21:13;;;;;;;6.88;1.60;;;4.40;94.10;;;;;;5108956;28;20905;-90
2023/01/03 01:23:40;;;;;;;5.72;1.30;;;4.40;93.90;;;;;;5109999;27;20397;-90
2023/01/03 01:26:09;;;;;;;10.75;2.15;;;4.40;93.90;;;;;;5092255;27;20419;-91
2023/01/03 01:28:35;;;;;;;8.60;1.88;;;4.40;94.00;;;;;;5093454;27;20448;-91
2023/01/03 01:31:02;;;;;;;9.30;2.70;;;4.60;94.20;;;;;;5092676;27;20410;-90
2023/01/03 01:33:30;;;;;;;8.05;2.63;;;4.40;94.30;;;;;;5092670;27;20417;-90
2023/01/03 01:35:55;;;;;;;6.82;2.13;;;4.40;94.40;;;;;;5093321;27;20478;-89
2023/01/03 01:38:21;;;;;;;8.10;2.03;;;4.50;94.50;;;;;;5091928;27;20913;-92
2023/01/03 01:40:47;;;;;;;7.53;2.13;;;4.50;94.30;;;;;;5093367;27;20507;-89
2023/01/03 01:46:10;;;;;;;7.37;1.80;;;4.50;94.80;;;;;;5109715;27;20437;-90
2023/01/03 01:48:36;;;;;;;10.65;2.45;;;4.40;94.30;;;;;;5092886;27;20411;-90
2023/01/03 01:51:02;;;;;;;7.00;2.33;;;4.40;94.30;;;;;;5092086;27;20402;-90
2023/01/03 01:53:33;;;;;;;9.80;2.50;;;4.40;94.40;;;;;;5093185;27;20406;-89
2023/01/03 01:56:04;;;;;;;10.40;2.43;;;4.40;94.20;;;;;;5092662;27;20395;-90
2023/01/03 01:58:38;;;;;;;10.65;2.35;;;4.40;94.20;;;;;;5109723;27;20406;-90
2023/01/03 02:01:07;;;;;;;10.70;2.42;;;4.30;94.20;;;;;;5092047;27;20489;-88
2023/01/03 02:03:33;;;;;;;7.93;2.90;;;4.20;94.30;;;;;;5092690;28;20496;-91
2023/01/03 02:06:00;;;;;;;8.73;3.23;;;4.20;94.40;;;;;;5091311;28;20442;-89
2023/01/03 02:08:26;;;;;;;7.38;3.25;;;4.10;94.40;;;;;;5091954;28;20428;-91
2023/01/03 02:11:04;;;;;;;9.93;3.33;;;4.10;94.40;;;;;;5093026;27;20489;-89
2023/01/03 02:13:54;;;;;;;9.40;3.40;;;4.10;94.40;;;;;;5092451;28;20415;-90
2023/01/03 02:16:47;;;;;;;9.02;2.80;;;4.00;94.60;;;;;;5092809;27;20413;-90
2023/01/03 02:19:27;;;;;;;6.47;2.42;;;4.00;94.60;;;;;;5093385;28;20415;-89
2023/01/03 02:22:37;;;;;;;9.45;2.97;;;3.90;94.50;;;;;;5091924;28;20444;-89
2023/01/03 02:25:28;;;;;;;8.63;2.88;;;3.80;94.60;;;;;;5092751;28;20422;-90
2023/01/03 02:28:33;;;;;;;9.30;3.90;;;3.70;94.50;;;;;;5092180;27;20789;-91
2023/01/03 02:31:25;;;;;;;10.82;3.60;;;3.60;94.70;;;;;;5091868;27;20407;-90
2023/01/03 02:34:20;;;;;;;9.07;3.75;;;3.50;94.60;;;;;;5094463;27;20484;-90
2023/01/03 02:37:06;;;;;;;10.93;3.60;;;3.40;94.80;;;;;;5114055;27;20657;-90
2023/01/03 02:39:53;;;;;;;9.65;3.70;;;3.30;94.50;;;;;;5095768;27;20432;-89
2023/01/03 02:43:04;;;;;;;11.13;3.42;;;3.20;94.70;;;;;;5096380;27;20398;-91
2023/01/03 02:45:58;;;;;;;9.60;3.27;;;3.10;94.80;;;;;;5011382;28;21111;-91
2023/01/03 02:49:01;;;;;;;7.88;3.33;;;3.10;94.90;;;;;;5095947;27;20417;-91
2023/01/03 02:51:34;;;;;;;7.97;3.05;;;3.00;94.90;;;;;;5095503;27;20459;-90
2023/01/03 02:54:02;;;;;;;6.57;3.28;;;2.90;95.00;;;;;;5096285;27;20405;-89
2023/01/03 02:56:34;;;;;;;12.35;5.03;;;2.80;94.90;;;;;;5095153;27;20399;-89
2023/01/03 02:59:06;;;;;;;11.88;3.90;;;2.70;95.10;;;;;;5113041;27;20394;-89
2023/01/03 03:01:33;;;;;;;9.27;3.95;;;2.70;95.20;;;;;;5095802;27;20782;-91
2023/01/03 03:04:00;;;;;;;10.40;4.32;;;2.60;95.20;;;;;;5095837;27;20395;-91
2023/01/03 03:06:37;;;;;;;10.00;4.82;;;2.60;95.20;;;;;;5095323;27;20489;-89
2023/01/03 03:09:03;;;;;;;14.35;6.00;;;2.60;95.40;;;;;;5112671;27;20912;-89
2023/01/03 03:14:38;;;;;;;10.68;4.60;;;2.50;95.70;;;;;;5112136;27;20749;-90
2023/01/03 03:17:15;;;;;;;14.27;5.45;;;2.50;95.70;;;;;;5113513;27;20403;-89
2023/01/03 03:25:34;;;;;;;11.10;5.10;;;2.40;96.00;;;;;;5133079;27;21135;-89
2023/01/03 03:30:53;;;;;;;11.05;4.93;;;2.40;96.10;;;;;;5132116;27;20397;-91
2023/01/03 03:33:22;;;;;;;12.43;5.20;;;2.40;96.00;;;;;;5115745;27;20433;-89
2023/01/03 03:36:02;;;;;;;12.43;6.35;;;2.40;95.90;;;;;;5114954;27;20429;-90
2023/01/03 03:38:34;;;;;;;14.15;5.25;;;2.30;95.90;;;;;;5116268;27;20845;-89
2023/01/03 03:47:17;;;;;;;13.70;6.22;;;2.20;96.00;;;;;;5132570;27;21059;-89
2023/01/03 03:49:44;;;;;;;12.57;6.20;;;2.20;96.10;;;;;;5115616;27;20955;-91
2023/01/03 03:52:18;;;;;;;14.40;6.13;;;2.10;96.00;;;;;;5115118;27;20404;-90
2023/01/03 03:54:54;;;;;;;11.35;5.18;;;2.10;96.00;;;;;;5115521;27;20401;-90
2023/01/03 03:57:33;;;;;;;11.27;5.30;;;2.10;96.10;;;;;;5114887;27;20474;-89
2023/01/03 04:00:23;;;;;;;12.93;6.38;;;2.10;96.20;;;;;;5115494;27;20412;-90
2023/01/03 04:02:49;;;;;;;10.30;6.07;;;2.10;96.40;;;;;;5114455;27;20747;-89
2023/01/03 04:05:19;;;;;;;15.95;7.30;;;2.20;96.60;;;;;;5114527;27;20417;-90
2023/01/03 04:07:45;;;;;;;13.25;5.97;;;2.30;96.60;;;;;;5115315;27;20407;-90
2023/01/03 04:10:12;;;;;;;15.00;6.70;;;2.20;96.60;;;;;;5114438;27;20723;-89
2023/01/03 04:12:38;;;;;;;14.98;7.80;;;2.20;96.60;;;;;;5132032;27;20392;-89
2023/01/03 04:15:05;;;;;;;13.18;7.60;;;2.20;96.70;;;;;;5114379;27;20760;-90
2023/01/03 04:17:32;;;;;;;15.32;6.90;;;2.20;96.60;;;;;;5115364;27;20803;-89
2023/01/03 04:19:57;;;;;;;13.65;6.90;;;2.20;96.60;;;;;;5114483;27;20393;-89
2023/01/03 04:22:23;;;;;;;14.63;7.32;;;2.20;96.60;;;;;;5131881;27;20413;-91
2023/01/03 04:24:48;;;;;;;11.23;6.35;;;2.20;96.40;;;;;;5114610;27;20432;-89
2023/01/03 04:27:14;;;;;;;18.13;7.73;;;2.20;96.40;;;;;;5131468;27;20717;-89
2023/01/03 04:29:40;;;;;;;17.13;8.67;;;2.10;96.20;;;;;;5114921;27;20393;-89
2023/01/03 04:32:06;;;;;;;14.60;7.57;;;2.10;96.00;;;;;;5130664;27;20881;-88
2023/01/03 04:34:32;;;;;;;12.35;6.93;;;2.10;96.00;;;;;;5114506;27;20884;-90
2023/01/03 04:36:58;;;;;;;13.30;7.40;;;2.00;95.90;;;;;;5114514;27;20396;-90
2023/01/03 04:39:23;;;;;;;16.77;7.47;;;2.20;96.10;;;;;;5114316;27;20894;-88
2023/01/03 04:41:49;;;;;;;16.07;9.50;;;1.90;96.10;;;;;;5114171;27;20798;-89
2023/01/03 04:44:14;;;;;;;17.48;9.02;;;2.00;96.50;;;;;;5113672;27;20400;-89
2023/01/03 04:46:40;;;;;;;21.93;11.07;;;2.20;96.60;;;;;;5131461;27;20413;-90
2023/01/03 04:49:09;;;;;;;14.37;9.10;;;2.10;96.70;;;;;;5114048;27;20397;-90
2023/01/03 04:51:35;;;;;;;20.67;9.73;;;2.20;96.70;;;;;;5114014;27;20397;-89
2023/01/03 04:54:02;;;;;;;16.77;9.65;;;2.20;96.80;;;;;;5113656;27;20389;-89
2023/01/03 04:56:36;;;;;;;18.43;9.97;;;2.40;96.90;;;;;;5114350;27;20427;-90
2023/01/03 04:59:03;;;;;;;19.00;9.90;;;2.30;96.80;;;;;;5113477;27;20469;-87
2023/01/03 05:01:28;;;;;;;16.02;9.13;;;2.40;96.70;;;;;;5113428;27;20393;-90
2023/01/03 05:04:01;;;;;;;16.63;10.63;;;2.40;96.80;;;;;;5114144;27;20404;-90
2023/01/03 05:06:27;;;;;;;14.15;8.43;;;2.40;96.50;;;;;;5112933;27;20412;-90
2023/01/03 05:08:53;;;;;;;17.05;10.55;;;2.40;96.70;;;;;;5114298;27;20397;-90
2023/01/03 05:11:18;;;;;;;19.92;10.77;;;2.40;96.40;;;;;;5113160;27;20749;-90
2023/01/03 05:13:44;;;;;;;19.23;9.48;;;2.40;96.50;;;;;;5113920;27;20891;-90
2023/01/03 05:16:12;;;;;;;14.73;8.07;;;2.40;96.40;;;;;;5113486;27;20409;-89
2023/01/03 05:18:38;;;;;;;15.00;8.85;;;2.40;96.40;;;;;;5113109;27;20397;-90
2023/01/03 05:26:41;;;;;;;17.67;10.93;;;2.50;96.50;;;;;;5130849;27;20489;-90
2023/01/03 05:29:08;;;;;;;16.48;9.75;;;2.50;96.50;;;;;;5113041;27;20390;-90
2023/01/03 05:31:33;;;;;;;20.13;10.90;;;2.50;96.40;;;;;;5112984;27;20429;-88
2023/01/03 05:33:59;;;;;;;24.00;11.05;;;2.40;96.40;;;;;;5113350;27;20440;-90
2023/01/03 05:36:25;;;;;;;17.52;9.45;;;2.40;96.30;;;;;;5112882;27;20442;-89
2023/01/03 05:38:51;;;;;;;17.23;9.70;;;2.40;96.20;;;;;;5113387;27;20393;-90
2023/01/03 05:41:58;;;;;;;15.88;9.63;;;2.40;96.20;;;;;;5129588;27;20424;-90
2023/01/03 05:44:02;;;;;;;16.63;9.50;;;2.40;96.20;;;;;;5130411;27;20767;-91
2023/01/03 05:46:28;;;;;;;18.97;10.93;;;2.40;96.30;;;;;;5130005;27;20409;-88
2023/01/03 05:48:54;;;;;;;19.27;10.45;;;2.50;96.30;;;;;;5112482;27;20415;-88
2023/01/03 05:51:20;;;;;;;18.40;11.30;;;2.40;96.20;;;;;;5113348;27;20763;-89
2023/01/03 05:53:45;;;;;;;22.13;12.17;;;2.30;96.20;;;;;;5129186;27;20486;-90
2023/01/03 05:56:11;;;;;;;21.30;12.80;;;2.40;96.30;;;;;;5113379;27;20397;-89
2023/01/03 05:58:36;;;;;;;23.83;13.10;;;2.30;96.30;;;;;;5130085;27;20729;-91
2023/01/03 06:01:10;;;;;;;27.37;13.87;;;2.30;96.50;;;;;;5113350;27;20397;-89
2023/01/03 06:03:36;;;;;;;28.52;15.90;;;2.40;96.40;;;;;;5112994;27;20772;-89
2023/01/03 06:06:03;;;;;;;32.25;16.25;;;2.20;96.40;;;;;;5112957;27;20409;-90
2023/01/03 06:08:28;;;;;;;35.40;16.00;;;2.20;96.50;;;;;;5129057;27;20396;-89
2023/01/03 06:10:54;;;;;;;31.70;15.57;;;2.10;96.60;;;;;;5112524;27;20768;-89
2023/01/03 06:13:20;;;;;;;29.97;16.60;;;2.10;96.20;;;;;;5113163;27;20411;-89
2023/01/03 06:17:53;;;;;;;45.80;19.93;;;2.30;96.20;;;;;;5129485;27;20446;-90
2023/01/03 06:18:33;;;;;;;53.90;20.73;;;1.70;96.10;;;;;;5130309;27;20392;-90
2023/01/03 06:21:01;;;;;;;41.00;18.55;;;1.90;96.30;;;;;;5112376;27;20440;-89
2023/01/03 06:23:27;;;;;;;49.67;22.02;;;1.80;96.20;;;;;;5105711;28;20411;-90
2023/01/03 06:25:53;;;;;;;42.40;19.88;;;1.80;96.30;;;;;;5092285;28;20422;-90
2023/01/03 06:28:18;;;;;;;42.08;20.73;;;1.80;96.20;;;;;;5091369;28;20927;-90
2023/01/03 06:30:44;;;;;;;47.50;21.03;;;1.90;96.20;;;;;;5092651;28;20422;-89
2023/01/03 06:33:11;;;;;;;45.33;20.70;;;1.70;96.30;;;;;;5091528;28;20402;-92
2023/01/03 06:35:39;;;;;;;61.10;25.73;;;1.80;96.30;;;;;;5108658;28;21168;-90
2023/01/03 06:38:05;;;;;;;47.42;21.73;;;1.80;96.50;;;;;;5091280;28;20398;-91
2023/01/03 06:40:31;;;;;;;61.13;26.92;;;1.60;96.40;;;;;;5095368;27;20438;-92
2023/01/03 06:42:56;;;;;;;62.92;26.15;;;2.00;96.50;;;;;;5126090;27;20410;-90
2023/01/03 06:53:40;;;;;;;62.22;29.33;;;1.50;96.50;;;;;;5109532;28;20399;-91
2023/01/03 06:56:07;;;;;;;66.55;29.38;;;1.40;96.50;;;;;;5092478;28;20456;-91
2023/01/03 06:58:33;;;;;;;71.97;30.75;;;1.40;96.60;;;;;;5091216;28;20515;-90
2023/01/03 07:01:03;;;;;;;60.42;27.58;;;1.40;96.60;;;;;;5109114;28;20403;-89
2023/01/03 07:03:30;;;;;;;60.38;28.80;;;1.70;96.60;;;;;;5093223;27;20398;-92
2023/01/03 07:05:56;;;;;;;84.65;33.50;;;1.30;96.60;;;;;;5111859;27;20534;-92
2023/01/03 07:08:21;;;;;;;74.28;33.08;;;1.30;96.60;;;;;;5108913;27;20429;-91
2023/01/03 07:10:47;;;;;;;85.38;34.85;;;1.30;96.60;;;;;;5110366;28;20421;-92
2023/01/03 07:15:58;;;;;;;84.50;38.38;;;1.30;96.70;;;;;;5128579;27;20397;-91
2023/01/03 07:18:25;;;;;;;99.00;38.43;;;1.30;96.60;;;;;;5094059;28;20395;-90
2023/01/03 07:20:51;;;;;;;95.47;37.57;;;1.20;96.60;;;;;;5110330;27;20402;-90
2023/01/03 07:23:17;;;;;;;85.77;36.83;;;1.40;96.60;;;;;;5095668;27;20391;-89
2023/01/03 07:25:42;;;;;;;83.75;37.67;;;1.20;96.50;;;;;;5131322;27;20454;-90
2023/01/03 07:28:13;;;;;;;89.45;37.53;;;1.20;96.40;;;;;;5113263;27;20397;-90
2023/01/03 07:30:40;;;;;;;71.95;33.70;;;1.10;96.40;;;;;;5115620;27;20736;-89
2023/01/03 07:33:08;;;;;;;86.78;36.33;;;1.10;96.40;;;;;;5111532;27;20425;-93
2023/01/03 07:35:34;;;;;;;79.05;34.50;;;1.00;96.40;;;;;;5095447;27;20406;-90
2023/01/03 07:38:01;;;;;;;86.38;37.13;;;1.00;96.50;;;;;;5094715;27;20399;-93
2023/01/03 07:40:27;;;;;;;78.97;34.85;;;1.00;96.50;;;;;;5095787;27;20766;-90
2023/01/03 07:45:42;;;;;;;95.90;38.10;;;1.00;96.70;;;;;;5128663;27;20509;-90
2023/01/03 07:48:08;;;;;;;99.32;38.00;;;1.00;96.80;;;;;;5094806;27;20403;-89
2023/01/03 07:50:35;;;;;;;93.57;37.67;;;1.00;96.70;;;;;;5094715;27;21127;-89
2023/01/03 07:53:01;;;;;;;75.43;36.20;;;1.10;96.80;;;;;;5095006;27;20422;-90
2023/01/03 07:55:27;;;;;;;76.22;34.80;;;1.10;96.80;;;;;;5093917;27;20446;-90
2023/01/03 07:57:54;;;;;;;97.82;38.65;;;1.00;96.80;;;;;;5095205;27;20459;-90
2023/01/03 08:00:20;;;;;;;82.80;35.37;;;1.10;96.70;;;;;;5093982;27;20412;-88
2023/01/03 08:02:46;;;;;;;77.97;35.10;;;1.20;96.70;;;;;;5094795;27;20387;-89
2023/01/03 08:05:12;;;;;;;75.37;33.80;;;1.00;96.70;;;;;;5094287;27;20900;-89
2023/01/03 08:07:37;;;;;;;80.43;33.77;;;1.00;96.70;;;;;;5094434;27;20739;-89
2023/01/03 08:15:50;;;;;;;69.82;33.95;;;1.10;96.80;;;;;;5088653;27;20409;-90
2023/01/03 08:18:19;;;;;;;65.32;34.40;;;1.10;96.90;;;;;;5094387;27;20462;-88
2023/01/03 08:20:46;;;;;;;63.73;34.70;;;1.20;97.00;;;;;;5093647;27;20890;-88
2023/01/03 08:23:13;;;;;;;67.03;35.33;;;1.30;97.20;;;;;;5094645;27;20493;-89
2023/01/03 08:25:38;;;;;;;62.58;33.67;;;1.30;97.20;;;;;;5092900;27;20450;-87
2023/01/03 08:28:05;;;;;;;64.93;36.17;;;1.50;97.20;;;;;;5128310;27;20410;-89
2023/01/03 08:30:31;;;;;;;62.13;34.90;;;1.50;97.20;;;;;;5127432;27;20398;-89
2023/01/03 08:33:01;;;;;;;62.00;34.83;;;1.60;97.10;;;;;;5094018;27;20410;-88
2023/01/03 08:35:31;;;;;;;61.58;34.00;;;1.70;97.20;;;;;;5110429;27;20417;-90
2023/01/03 08:38:00;;;;;;;64.87;35.97;;;1.70;97.00;;;;;;5093956;27;20398;-89
2023/01/03 08:40:26;;;;;;;63.45;36.40;;;1.70;96.90;;;;;;5094349;27;20407;-90
2023/01/03 08:42:52;;;;;;;65.00;37.23;;;1.80;96.90;;;;;;5092924;27;20398;-88
2023/01/03 08:45:18;;;;;;;64.23;36.67;;;1.80;96.80;;;;;;5093526;27;20434;-90
2023/01/03 08:47:45;;;;;;;60.13;36.43;;;1.90;96.70;;;;;;5093068;27;20415;-88
2023/01/03 08:50:11;;;;;;;58.38;35.75;;;1.90;96.70;;;;;;5127525;27;20407;-88
2023/01/03 08:52:37;;;;;;;56.23;32.87;;;1.90;96.70;;;;;;5093262;27;20501;-86
2023/01/03 08:55:04;;;;;;;50.43;31.17;;;2.30;96.70;;;;;;5127240;27;20403;-88
2023/01/03 08:57:30;;;;;;;52.30;32.70;;;2.00;96.50;;;;;;5093319;27;21470;-89
2023/01/03 08:59:56;;;;;;;58.17;33.43;;;2.30;96.40;;;;;;5092374;27;20764;-89
2023/01/03 09:02:21;;;;;;;74.27;36.23;;;1.90;96.10;;;;;;5127616;27;20825;-89
2023/01/03 09:04:47;;;;;;;78.90;38.17;;;1.90;96.10;;;;;;5126582;27;20440;-89
2023/01/03 09:07:13;;;;;;;105.47;40.85;;;1.90;96.20;;;;;;5110577;27;20403;-89
2023/01/03 09:09:38;;;;;;;135.37;42.47;;;1.90;96.30;;;;;;5092264;27;20491;-89
2023/01/03 09:12:04;;;;;;;129.17;39.07;;;1.90;96.40;;;;;;5109975;27;20442;-89
2023/01/03 09:14:30;;;;;;;105.67;39.53;;;1.90;96.40;;;;;;5126978;27;20502;-88
2023/01/03 09:16:56;;;;;;;107.45;36.15;;;2.10;96.60;;;;;;5092958;27;20806;-89
2023/01/03 09:19:22;;;;;;;124.60;37.87;;;1.90;96.60;;;;;;5093097;27;20432;-88
2023/01/03 09:21:47;;;;;;;121.47;38.53;;;1.90;96.70;;;;;;5092637;27;20549;-90
2023/01/03 09:24:13;;;;;;;109.68;36.05;;;1.80;96.70;;;;;;5110134;27;20407;-88
2023/01/03 09:26:39;;;;;;;129.85;39.22;;;1.90;96.70;;;;;;5126178;27;20440;-89
2023/01/03 09:29:05;;;;;;;140.02;39.90;;;1.90;96.80;;;;;;5109725;27;20801;-90
2023/01/03 09:31:33;;;;;;;217.27;45.08;;;1.90;96.80;;;;;;5109815;27;20455;-89
2023/01/03 09:34:00;;;;;;;215.43;46.42;;;2.20;97.00;;;;;;5126857;27;20411;-90
2023/01/03 09:36:25;;;;;;;220.20;47.35;;;2.00;96.90;;;;;;5092861;27;20478;-89
2023/01/03 09:38:51;;;;;;;229.35;47.13;;;2.10;97.10;;;;;;5092001;27;20406;-91
2023/01/03 09:41:22;;;;;;;262.40;48.60;;;2.20;97.10;;;;;;5093037;27;20877;-89
2023/01/03 09:43:50;;;;;;;295.90;50.67;;;2.20;97.10;;;;;;5108118;27;20414;-91
2023/01/03 09:46:20;;;;;;;292.80;49.70;;;2.30;97.20;;;;;;5092790;27;20426;-91
2023/01/03 09:48:47;;;;;;;323.90;53.67;;;2.30;97.50;;;;;;5092173;27;20766;-90
2023/01/03 10:03:43;;;;;;;404.25;60.92;;;2.60;97.50;;;;;;5122256;27;20889;-90
2023/01/03 10:06:16;;;;;;;364.73;58.37;;;2.70;97.60;;;;;;5104685;28;20431;-90
2023/01/03 10:08:57;;;;;;;450.13;62.83;;;2.80;97.60;;;;;;5091794;28;20459;-90
2023/01/03 10:11:47;;;;;;;503.60;67.05;;;2.90;97.70;;;;;;5090936;27;20800;-89
2023/01/03 10:14:48;;;;;;;458.63;72.85;;;3.00;97.70;;;;;;5129408;27;20417;-89
2023/01/03 10:17:42;;;;;;;461.25;67.75;;;3.10;97.70;;;;;;5112833;27;20432;-89
2023/01/03 10:20:13;;;;;;;552.58;73.80;;;3.10;97.70;;;;;;5130335;27;20413;-89
2023/01/03 10:22:39;;;;;;;538.33;75.83;;;3.20;97.70;;;;;;5100682;27;20421;-91
2023/01/03 10:25:16;;;;;;;481.85;70.80;;;3.30;97.70;;;;;;5107109;27;20520;-90
2023/01/03 10:27:56;;;;;;;500.95;71.05;;;3.30;97.70;;;;;;5095387;27;20402;-91
2023/01/03 10:30:33;;;;;;;475.90;70.47;;;3.40;97.70;;;;;;5109769;27;20438;-91
2023/01/03 10:33:22;;;;;;;438.58;67.35;;;3.50;97.70;;;;;;5105754;28;20501;-91
2023/01/03 10:35:48;;;;;;;341.07;60.90;;;3.60;97.70;;;;;;5091803;28;20757;-89
2023/01/03 10:38:17;;;;;;;427.15;66.93;;;3.60;97.60;;;;;;5095436;27;20404;-89
2023/01/03 10:40:50;;;;;;;364.27;64.30;;;3.70;97.60;;;;;;5094772;28;20485;-89
2023/01/03 10:43:25;;;;;;;411.40;70.15;;;3.70;97.50;;;;;;5108928;28;20405;-91
2023/01/03 10:46:03;;;;;;;387.75;69.28;;;3.80;97.50;;;;;;5108991;28;20421;-92
2023/01/03 10:48:40;;;;;;;358.52;66.88;;;4.00;97.60;;;;;;5091389;28;20497;-90
2023/01/03 10:51:22;;;;;;;347.90;68.03;;;4.00;97.50;;;;;;5107773;28;20410;-91
2023/01/03 10:53:50;;;;;;;275.23;65.90;;;4.10;97.50;;;;;;5091871;27;20477;-90
2023/01/03 10:56:17;;;;;;;237.38;63.20;;;4.20;97.50;;;;;;5095991;27;20386;-91
2023/01/03 10:58:43;;;;;;;243.68;65.25;;;4.30;97.50;;;;;;5095758;27;20394;-92
2023/01/03 11:01:28;;;;;;;211.77;62.60;;;4.50;97.60;;;;;;5095711;27;20410;-91
2023/01/03 11:04:17;;;;;;;177.27;59.22;;;4.80;97.50;;;;;;5095347;27;20995;-92
2023/01/03 11:07:12;;;;;;;199.38;59.78;;;4.80;97.20;;;;;;5095017;27;20478;-89
2023/01/03 11:09:56;;;;;;;182.20;58.30;;;4.80;97.10;;;;;;5095223;27;20452;-88
2023/01/03 11:12:35;;;;;;;179.15;57.72;;;4.90;97.10;;;;;;5095735;27;20944;-89
2023/01/03 11:15:24;;;;;;;161.27;55.35;;;5.00;97.00;;;;;;5094598;27;20405;-89
2023/01/03 11:18:02;;;;;;;168.10;57.53;;;5.00;96.80;;;;;;5095446;27;20589;-89
2023/01/03 11:20:42;;;;;;;161.82;55.25;;;5.10;96.80;;;;;;5095451;27;20446;-90
2023/01/03 11:23:18;;;;;;;133.10;52.80;;;5.20;96.70;;;;;;5111464;27;20403;-90
2023/01/03 11:25:54;;;;;;;138.48;53.35;;;5.40;96.50;;;;;;5112083;27;20517;-91
2023/01/03 11:28:49;;;;;;;141.25;54.58;;;5.30;96.40;;;;;;5108497;27;20434;-91
2023/01/03 11:31:29;;;;;;;129.43;52.88;;;5.30;96.30;;;;;;5112068;27;20423;-89
2023/01/03 11:34:18;;;;;;;134.60;54.28;;;5.30;96.30;;;;;;5095628;27;20418;-91
2023/01/03 11:36:58;;;;;;;133.30;54.65;;;5.40;96.30;;;;;;5094110;27;20433;-90
2023/01/03 11:39:42;;;;;;;124.67;53.10;;;5.40;96.30;;;;;;5095589;27;21004;-90
2023/01/03 11:42:31;;;;;;;113.15;52.33;;;5.40;96.20;;;;;;5095408;27;20426;-88
2023/01/03 11:45:24;;;;;;;122.18;53.35;;;5.40;96.10;;;;;;5093640;27;20430;-89
2023/01/03 11:48:14;;;;;;;132.07;56.80;;;5.50;96.20;;;;;;5112424;27;20960;-91
2023/01/03 11:50:55;;;;;;;140.83;57.73;;;5.50;96.30;;;;;;5094845;27;20432;-90
2023/01/03 11:53:45;;;;;;;125.43;55.25;;;5.50;96.30;;;;;;5093643;27;20448;-90
2023/01/03 11:56:29;;;;;;;138.50;55.70;;;5.50;96.30;;;;;;5095087;27;20411;-91
2023/01/03 11:59:17;;;;;;;132.65;57.00;;;5.60;96.30;;;;;;5096368;27;20417;-91
2023/01/03 12:02:20;;;;;;;119.63;55.60;;;5.60;96.30;;;;;;5102779;27;20398;-91
2023/01/03 12:05:17;;;;;;;129.13;56.75;;;5.60;96.30;;;;;;5094771;27;20480;-92
2023/01/03 12:08:10;;;;;;;133.02;58.88;;;5.70;96.40;;;;;;5094080;27;20456;-92
2023/01/03 12:10:48;;;;;;;127.28;55.40;;;5.70;96.40;;;;;;5111791;27;20407;-91
2023/01/03 12:13:40;;;;;;;123.78;56.92;;;5.80;96.40;;;;;;5094913;27;20494;-89
2023/01/03 12:16:22;;;;;;;125.13;57.03;;;5.90;96.40;;;;;;5093168;27;20403;-90
2023/01/03 12:18:52;;;;;;;141.38;58.03;;;5.80;96.40;;;;;;5095551;27;20410;-91
2023/01/03 12:21:25;;;;;;;115.40;55.10;;;6.00;96.40;;;;;;5094455;27;20430;-89
2023/01/03 12:23:57;;;;;;;120.53;55.42;;;6.00;96.40;;;;;;5093014;27;20885;-91
2023/01/03 12:26:24;;;;;;;121.50;56.67;;;6.00;96.40;;;;;;5094164;27;20476;-89
2023/01/03 12:28:56;;;;;;;110.68;53.83;;;6.10;96.50;;;;;;5093457;27;20406;-90
2023/01/03 12:31:44;;;;;;;112.30;54.38;;;6.20;96.40;;;;;;5094242;27;20398;-89
2023/01/03 12:34:32;;;;;;;135.82;56.47;;;6.30;96.50;;;;;;5094211;27;20486;-90
2023/01/03 12:37:08;;;;;;;99.88;50.95;;;6.20;96.50;;;;;;5046593;27;20430;-88
2023/01/03 12:39:55;;;;;;;101.25;49.88;;;6.30;96.40;;;;;;5094206;27;20903;-91
2023/01/03 12:42:41;;;;;;;100.60;49.75;;;6.30;96.40;;;;;;5093842;27;20494;-89
2023/01/03 12:45:08;;;;;;;95.05;49.45;;;6.40;96.30;;;;;;5092819;27;20469;-89
2023/01/03 12:47:49;;;;;;;92.80;46.60;;;6.40;96.30;;;;;;5096113;27;20407;-89
2023/01/03 12:50:24;;;;;;;85.28;45.47;;;6.40;96.40;;;;;;5130594;27;20797;-90
2023/01/03 12:53:00;;;;;;;78.00;44.22;;;6.50;96.30;;;;;;5114168;27;20483;-88
2023/01/03 12:55:55;;;;;;;83.40;45.03;;;6.50;96.30;;;;;;5114433;27;20429;-89
2023/01/03 12:58:25;;;;;;;88.72;46.10;;;6.50;96.30;;;;;;5103682;27;20455;-89
2023/01/03 13:01:04;;;;;;;87.03;46.33;;;6.60;96.40;;;;;;5114211;27;20474;-91
2023/01/03 13:03:44;;;;;;;80.82;43.35;;;6.60;96.40;;;;;;5113136;27;20394;-90
2023/01/03 13:06:27;;;;;;;74.20;40.45;;;6.70;96.40;;;;;;5130926;27;20863;-90
2023/01/03 13:09:00;;;;;;;68.88;40.13;;;6.80;96.20;;;;;;5130883;27;20435;-90
2023/01/03 13:11:29;;;;;;;69.03;38.65;;;6.80;96.20;;;;;;5130200;27;20400;-90
2023/01/03 13:14:01;;;;;;;66.45;38.22;;;6.80;96.20;;;;;;5114062;27;20807;-90
2023/01/03 13:16:36;;;;;;;67.80;37.53;;;6.90;96.20;;;;;;5112914;27;20397;-91
2023/01/03 13:19:34;;;;;;;61.07;36.97;;;6.90;96.10;;;;;;5113604;27;20519;-91
2023/01/03 13:22:21;;;;;;;61.65;36.13;;;6.90;96.10;;;;;;5058328;27;20491;-90
2023/01/03 13:24:52;;;;;;;54.00;33.15;;;7.00;96.10;;;;;;5112739;27;20536;-89
2023/01/03 13:27:18;;;;;;;52.40;31.70;;;7.10;96.10;;;;;;5113332;27;20415;-91
2023/01/03 13:29:50;;;;;;;51.67;31.87;;;7.00;96.00;;;;;;5097280;27;20406;-88
2023/01/03 13:32:24;;;;;;;50.00;31.25;;;7.00;96.00;;;;;;5109637;27;20403;-91
2023/01/03 13:34:53;;;;;;;52.10;31.75;;;7.10;96.00;;;;;;5098897;27;20413;-90
2023/01/03 13:37:24;;;;;;;54.75;32.13;;;7.10;95.90;;;;;;5112677;27;20408;-91
2023/01/03 13:39:50;;;;;;;49.67;30.20;;;7.10;95.90;;;;;;5110510;27;20393;-90
2023/01/03 13:42:37;;;;;;;51.67;30.38;;;7.10;95.90;;;;;;5091855;27;20464;-91
2023/01/03 13:45:17;;;;;;;57.75;32.70;;;7.10;95.90;;;;;;5088736;28;20431;-91
2023/01/03 13:47:48;;;;;;;49.78;31.02;;;7.20;95.90;;;;;;5089222;28;20408;-92
2023/01/03 13:50:35;;;;;;;50.78;31.10;;;7.20;95.90;;;;;;5078578;28;20511;-92
2023/01/03 13:53:02;;;;;;;57.95;32.85;;;7.20;95.90;;;;;;5106444;28;20408;-92
2023/01/03 13:55:37;;;;;;;49.03;29.80;;;7.20;96.00;;;;;;5089028;28;20499;-92
2023/01/03 13:58:26;;;;;;;50.70;31.27;;;7.20;95.90;;;;;;5089585;28;20412;-89
2023/01/03 14:01:01;;;;;;;59.03;33.30;;;7.20;96.00;;;;;;5089341;28;20401;-90
2023/01/03 14:03:57;;;;;;;55.78;32.10;;;7.30;96.00;;;;;;5088690;28;20828;-89
2023/01/03 14:06:43;;;;;;;52.03;31.40;;;7.50;96.00;;;;;;5089219;28;20455;-90